Time;durP1;ratioP1;P1;durP2;ratioP2;P2;SDS_P1;SDS_P2;PMS_P1;PMS_P2;Temp;Humidity;BMP_temperature;BMP_pressure;BME280_temperature;BME280_humidity;BME280_pressure;Samples;Min_cycle;Max_cycle;Signal;HPM_P1;HPM_P2
2022/06/05 00:00:18;;;;;;;21.45;2.38;;;40.20;15.30;;;;;;5051923;28;20029;-66
2022/06/05 00:03:11;;;;;;;11.32;2.00;;;40.20;15.60;;;;;;5051356;28;20033;-65
2022/06/05 00:05:55;;;;;;;17.23;2.50;;;40.10;15.80;;;;;;5045096;28;20060;-66
2022/06/05 00:09:02;;;;;;;13.00;2.63;;;40.10;15.90;;;;;;5054258;28;20111;-65
2022/06/05 00:11:37;;;;;;;17.75;2.30;;;40.10;16.20;;;;;;5040702;28;20918;-66
2022/06/05 00:14:04;;;;;;;16.27;3.03;;;40.00;16.00;;;;;;5051495;28;20037;-66
2022/06/05 00:16:30;;;;;;;15.48;2.30;;;40.00;16.20;;;;;;5053181;28;20037;-65
2022/06/05 00:18:56;;;;;;;12.50;2.55;;;39.90;16.40;;;;;;5052362;28;20415;-66
2022/06/05 00:21:23;;;;;;;19.42;2.35;;;39.80;16.60;;;;;;5052013;28;20029;-66
2022/06/05 00:23:51;;;;;;;11.82;2.00;;;39.70;16.50;;;;;;5053620;28;20025;-65
2022/06/05 00:26:44;;;;;;;11.63;2.35;;;39.60;16.30;;;;;;5049223;28;20024;-65
2022/06/05 00:29:44;;;;;;;15.88;2.30;;;39.40;16.10;;;;;;5035946;28;20049;-65
2022/06/05 00:32:21;;;;;;;12.23;2.00;;;39.20;16.60;;;;;;5050703;28;20086;-63
2022/06/05 00:34:47;;;;;;;13.07;2.60;;;39.20;16.50;;;;;;5051561;28;20110;-65
2022/06/05 00:37:34;;;;;;;15.98;2.20;;;39.10;16.50;;;;;;5051208;28;20025;-63
2022/06/05 00:40:03;;;;;;;13.18;2.78;;;39.00;16.30;;;;;;5055483;28;20036;-64
2022/06/05 00:42:32;;;;;;;10.20;1.58;;;38.90;16.50;;;;;;5053033;28;20098;-64
2022/06/05 00:45:05;;;;;;;16.50;1.83;;;38.90;16.10;;;;;;5051269;28;20098;-64
2022/06/05 00:47:33;;;;;;;8.75;1.90;;;38.80;16.00;;;;;;5052101;28;20130;-65
2022/06/05 00:50:22;;;;;;;24.02;2.42;;;38.70;16.20;;;;;;5051068;28;20048;-65
2022/06/05 00:52:53;;;;;;;8.20;1.67;;;38.70;16.50;;;;;;5050655;28;20060;-64
2022/06/05 00:55:20;;;;;;;50.97;3.72;;;38.80;16.30;;;;;;5050851;28;20020;-64
2022/06/05 00:57:47;;;;;;;11.52;1.50;;;38.60;15.60;;;;;;5050317;28;20025;-65
2022/06/05 01:00:24;;;;;;;10.85;1.83;;;38.50;15.40;;;;;;5050566;28;20040;-64
2022/06/05 01:02:53;;;;;;;15.32;1.73;;;38.30;15.30;;;;;;5050524;28;20386;-66
2022/06/05 01:05:26;;;;;;;18.13;1.90;;;38.20;15.80;;;;;;5067126;28;20017;-65
2022/06/05 01:07:53;;;;;;;15.88;2.70;;;38.00;15.90;;;;;;5051486;28;20165;-68
2022/06/05 01:10:22;;;;;;;13.48;2.28;;;37.90;15.90;;;;;;5058308;28;20453;-66
2022/06/05 01:13:01;;;;;;;12.52;3.80;;;37.90;16.10;;;;;;5051988;28;20017;-67
2022/06/05 01:15:56;;;;;;;17.48;1.92;;;38.00;16.00;;;;;;5052919;28;20028;-71
2022/06/05 01:18:41;;;;;;;8.48;1.75;;;37.70;15.70;;;;;;5050131;28;20048;-70
2022/06/05 01:21:11;;;;;;;16.20;1.95;;;37.70;15.90;;;;;;5051742;28;20032;-72
2022/06/05 01:23:59;;;;;;;12.52;2.20;;;37.60;15.80;;;;;;5053875;28;20032;-65
2022/06/05 01:26:34;;;;;;;14.43;2.10;;;37.50;15.90;;;;;;5050466;28;20139;-65
2022/06/05 01:29:12;;;;;;;30.98;2.65;;;37.40;15.90;;;;;;5058916;28;20070;-65
2022/06/05 01:32:01;;;;;;;15.70;1.98;;;37.30;15.90;;;;;;5051705;28;20078;-66
2022/06/05 01:34:34;;;;;;;11.32;1.63;;;37.20;16.10;;;;;;5047795;28;20059;-63
2022/06/05 01:37:12;;;;;;;16.10;2.47;;;37.10;16.10;;;;;;5050645;28;20036;-63
2022/06/05 01:40:02;;;;;;;9.23;1.60;;;36.90;16.20;;;;;;5049782;28;20100;-63
2022/06/05 01:42:37;;;;;;;17.63;2.10;;;36.70;15.90;;;;;;5046313;28;20067;-64
2022/06/05 01:45:30;;;;;;;20.30;2.42;;;36.60;16.10;;;;;;5053960;28;20510;-67
2022/06/05 01:47:59;;;;;;;20.42;2.15;;;36.50;15.70;;;;;;5031456;28;20043;-66
2022/06/05 01:50:35;;;;;;;20.88;2.42;;;36.20;15.40;;;;;;5050191;28;20071;-64
2022/06/05 01:53:10;;;;;;;30.08;2.13;;;36.10;15.40;;;;;;5049986;28;20055;-62
2022/06/05 01:55:57;;;;;;;24.20;2.35;;;35.90;15.50;;;;;;5046385;28;20152;-62
2022/06/05 01:58:31;;;;;;;13.13;2.10;;;35.80;15.50;;;;;;5049288;28;20042;-65
2022/06/05 02:01:03;;;;;;;18.00;2.30;;;35.70;15.60;;;;;;5031857;28;20526;-62
2022/06/05 02:03:36;;;;;;;18.92;1.95;;;35.50;15.70;;;;;;5048550;28;20054;-67
2022/06/05 02:06:16;;;;;;;13.85;1.75;;;35.40;15.70;;;;;;5047407;28;20071;-65
2022/06/05 02:08:56;;;;;;;13.32;2.22;;;35.30;16.00;;;;;;5048026;28;20137;-68
2022/06/05 02:11:25;;;;;;;11.05;2.08;;;35.20;16.00;;;;;;5046881;28;20033;-68
2022/06/05 02:13:56;;;;;;;12.48;1.95;;;35.20;16.20;;;;;;5047247;28;20042;-65
2022/06/05 02:16:23;;;;;;;12.55;2.15;;;35.10;16.20;;;;;;5049937;28;20058;-65
2022/06/05 02:18:50;;;;;;;18.23;2.00;;;35.00;15.90;;;;;;5048591;28;20033;-65
2022/06/05 02:21:18;;;;;;;12.40;1.80;;;34.90;16.20;;;;;;5049926;28;20059;-66
2022/06/05 02:23:45;;;;;;;11.18;2.33;;;34.80;16.40;;;;;;5032334;28;20420;-65
2022/06/05 02:26:12;;;;;;;9.43;2.00;;;34.70;16.60;;;;;;5048962;28;20045;-66
2022/06/05 02:28:39;;;;;;;13.70;1.92;;;34.70;16.80;;;;;;5048544;28;20059;-67
2022/06/05 02:31:37;;;;;;;19.05;2.10;;;34.60;16.80;;;;;;5049930;28;20054;-67
2022/06/05 02:34:31;;;;;;;15.27;2.63;;;34.40;16.70;;;;;;5032851;28;20043;-67
2022/06/05 02:37:12;;;;;;;34.90;3.50;;;34.40;17.00;;;;;;5047033;28;20049;-65
2022/06/05 02:40:00;;;;;;;21.15;2.58;;;34.30;16.80;;;;;;5049424;28;20051;-65
2022/06/05 02:43:04;;;;;;;19.70;2.53;;;34.10;16.90;;;;;;5062862;28;20156;-65
2022/06/05 02:45:31;;;;;;;15.65;2.88;;;34.00;16.90;;;;;;5031898;28;20049;-65
2022/06/05 02:48:06;;;;;;;14.60;2.03;;;33.90;17.10;;;;;;5053136;28;20046;-64
2022/06/05 02:50:59;;;;;;;24.45;2.53;;;33.90;16.80;;;;;;5049618;28;20082;-64
2022/06/05 02:53:26;;;;;;;16.05;2.72;;;33.80;16.60;;;;;;5047375;28;20138;-64
2022/06/05 02:55:52;;;;;;;14.52;2.80;;;33.70;16.60;;;;;;5031684;28;20049;-66
2022/06/05 02:58:19;;;;;;;18.13;2.45;;;33.60;16.60;;;;;;5049632;28;20125;-67
2022/06/05 03:03:27;;;;;;;22.75;4.03;;;33.60;16.60;;;;;;5047968;28;20064;-63
2022/06/05 03:03:32;;;;;;;13.77;4.25;;;33.50;16.30;;;;;;5049267;28;20591;-66
2022/06/05 03:06:02;;;;;;;23.27;3.88;;;33.50;16.10;;;;;;5050985;28;20081;-66
2022/06/05 03:08:28;;;;;;;15.50;2.30;;;33.40;16.00;;;;;;5048013;28;20052;-64
2022/06/05 03:10:55;;;;;;;15.50;2.15;;;33.30;15.90;;;;;;5047053;28;20141;-65
2022/06/05 03:13:22;;;;;;;25.27;2.97;;;33.30;16.00;;;;;;5032119;28;20058;-64
2022/06/05 03:15:49;;;;;;;25.15;2.47;;;33.20;16.10;;;;;;5048978;28;20477;-65
2022/06/05 03:18:16;;;;;;;19.20;2.78;;;33.10;16.10;;;;;;5047509;28;20073;-65
2022/06/05 03:20:42;;;;;;;17.05;2.40;;;33.10;16.20;;;;;;5048662;28;20082;-66
2022/06/05 03:23:10;;;;;;;38.53;3.40;;;33.00;16.30;;;;;;5048030;28;20124;-66
2022/06/05 03:25:39;;;;;;;15.98;2.10;;;33.00;16.30;;;;;;5047912;28;20530;-67
2022/06/05 03:28:07;;;;;;;15.70;3.20;;;33.00;16.40;;;;;;5048247;28;20050;-63
2022/06/05 03:30:35;;;;;;;10.98;2.50;;;32.90;16.40;;;;;;5013890;28;20175;-65
2022/06/05 03:33:02;;;;;;;12.65;2.53;;;32.80;16.90;;;;;;5047972;28;20047;-64
2022/06/05 03:35:28;;;;;;;18.73;1.80;;;32.80;16.40;;;;;;5031579;28;20051;-65
2022/06/05 03:37:55;;;;;;;13.43;1.48;;;32.70;16.50;;;;;;5064256;28;20162;-65
2022/06/05 03:40:21;;;;;;;12.93;1.90;;;32.60;16.50;;;;;;5048043;28;20060;-65
2022/06/05 03:42:47;;;;;;;14.68;2.28;;;32.60;16.50;;;;;;5031763;28;20062;-66
2022/06/05 03:45:16;;;;;;;21.75;2.40;;;32.60;16.60;;;;;;5048472;28;20379;-67
2022/06/05 03:47:42;;;;;;;17.73;1.85;;;32.50;16.50;;;;;;5048660;28;20056;-64
2022/06/05 03:50:10;;;;;;;12.63;1.55;;;32.40;16.60;;;;;;5048088;28;20094;-65
2022/06/05 03:52:36;;;;;;;16.60;2.33;;;32.30;16.40;;;;;;5031371;28;20101;-64
2022/06/05 03:55:03;;;;;;;12.63;2.20;;;32.40;16.60;;;;;;5047159;28;20098;-65
2022/06/05 03:57:30;;;;;;;13.90;2.33;;;32.30;16.60;;;;;;5047668;28;20056;-65
2022/06/05 03:59:56;;;;;;;9.88;1.83;;;32.20;16.60;;;;;;5048350;28;20054;-65
2022/06/05 04:02:25;;;;;;;10.32;1.98;;;32.20;16.60;;;;;;5047614;28;20238;-68
2022/06/05 04:04:52;;;;;;;9.48;1.80;;;32.10;16.70;;;;;;5047761;28;20049;-65
2022/06/05 04:07:19;;;;;;;20.67;2.35;;;32.10;16.70;;;;;;5047308;28;20503;-66
2022/06/05 04:09:45;;;;;;;10.93;2.15;;;32.10;16.80;;;;;;5013868;28;20142;-64
2022/06/05 04:12:12;;;;;;;7.82;1.73;;;32.10;16.90;;;;;;5047525;28;20576;-67
2022/06/05 04:14:41;;;;;;;8.45;1.75;;;32.00;16.90;;;;;;5047926;28;20063;-66
2022/06/05 04:17:09;;;;;;;6.32;1.60;;;31.90;17.10;;;;;;5048376;28;20061;-66
2022/06/05 04:19:36;;;;;;;12.80;1.50;;;31.90;17.20;;;;;;5051027;28;20060;-66
2022/06/05 04:22:03;;;;;;;7.00;2.10;;;31.90;17.40;;;;;;5053369;28;20498;-65
2022/06/05 04:24:29;;;;;;;13.90;2.67;;;31.80;17.50;;;;;;5037210;28;20410;-64
2022/06/05 04:26:55;;;;;;;12.00;2.15;;;31.80;17.70;;;;;;5051909;28;20076;-65
2022/06/05 04:29:22;;;;;;;13.38;1.65;;;31.80;17.80;;;;;;5054902;28;20059;-67
2022/06/05 04:31:50;;;;;;;13.68;1.90;;;31.70;17.80;;;;;;5050971;28;20053;-66
2022/06/05 04:34:19;;;;;;;14.43;2.63;;;31.70;18.00;;;;;;5052378;28;20084;-66
2022/06/05 04:36:47;;;;;;;6.18;2.17;;;31.70;18.00;;;;;;5051948;28;20077;-66
2022/06/05 04:39:14;;;;;;;10.32;2.05;;;31.60;18.00;;;;;;5051131;28;20060;-65
2022/06/05 04:41:41;;;;;;;10.57;2.03;;;31.60;18.00;;;;;;5050705;28;20440;-66
2022/06/05 04:44:11;;;;;;;11.50;1.90;;;31.70;18.00;;;;;;5051066;28;20061;-67
2022/06/05 04:46:37;;;;;;;15.43;2.40;;;31.60;18.10;;;;;;5051350;28;20049;-70
2022/06/05 04:49:06;;;;;;;16.85;2.08;;;31.60;18.10;;;;;;5049315;28;20609;-70
2022/06/05 04:51:34;;;;;;;15.45;2.10;;;31.60;18.20;;;;;;5050435;28;20425;-70
2022/06/05 04:54:01;;;;;;;12.70;1.50;;;31.60;18.20;;;;;;5049995;28;20481;-67
2022/06/05 04:56:29;;;;;;;10.93;1.90;;;31.60;18.00;;;;;;5051994;28;20068;-69
2022/06/05 04:59:00;;;;;;;12.23;1.95;;;31.70;18.20;;;;;;5051162;28;20638;-70
2022/06/05 05:01:30;;;;;;;18.95;2.03;;;31.70;18.10;;;;;;5059118;28;20511;-69
2022/06/05 05:04:02;;;;;;;20.25;3.38;;;31.60;18.20;;;;;;5050996;28;20059;-68
2022/06/05 05:06:30;;;;;;;17.50;2.28;;;31.50;18.10;;;;;;5049479;28;20062;-70
2022/06/05 05:08:57;;;;;;;12.45;4.22;;;31.50;18.20;;;;;;5051206;28;20051;-69
2022/06/05 05:11:24;;;;;;;19.48;5.00;;;31.50;18.10;;;;;;5050603;28;21022;-70
2022/06/05 05:13:52;;;;;;;14.65;5.32;;;31.50;18.20;;;;;;5053847;28;20133;-70
2022/06/05 05:16:18;;;;;;;17.15;3.22;;;31.50;18.40;;;;;;5051580;28;20405;-69
2022/06/05 05:18:45;;;;;;;17.25;2.53;;;31.50;18.20;;;;;;5035531;28;20075;-68
2022/06/05 05:21:14;;;;;;;16.83;3.72;;;31.50;18.90;;;;;;5052807;28;20064;-71
2022/06/05 05:23:42;;;;;;;20.02;2.63;;;31.40;18.10;;;;;;5034418;28;20094;-70
2022/06/05 05:26:20;;;;;;;20.98;3.25;;;31.50;18.30;;;;;;5051445;28;20051;-70
2022/06/05 05:28:47;;;;;;;9.73;2.05;;;31.40;18.30;;;;;;5035256;28;20061;-70
2022/06/05 05:31:17;;;;;;;17.58;1.85;;;31.40;18.60;;;;;;5047490;28;20183;-71
2022/06/05 05:33:43;;;;;;;9.77;1.85;;;31.30;18.70;;;;;;5052422;28;20206;-70
2022/06/05 05:36:10;;;;;;;13.93;2.00;;;31.20;18.80;;;;;;5039964;28;20060;-71
2022/06/05 05:38:38;;;;;;;21.48;2.83;;;31.10;19.10;;;;;;5052542;28;20180;-69
2022/06/05 05:43:50;;;;;;;15.98;2.38;;;30.90;18.80;;;;;;5051165;28;20132;-70
2022/06/05 05:46:17;;;;;;;15.05;2.30;;;30.80;19.00;;;;;;5051485;28;20061;-71
2022/06/05 05:48:46;;;;;;;15.18;2.10;;;30.80;19.20;;;;;;5053749;28;20066;-69
2022/06/05 05:51:16;;;;;;;12.25;2.60;;;30.70;19.40;;;;;;5054777;28;20068;-70
2022/06/05 05:53:42;;;;;;;22.80;2.63;;;30.60;19.50;;;;;;5047684;28;20899;-70
2022/06/05 05:56:13;;;;;;;34.17;3.33;;;30.60;19.60;;;;;;5049085;28;20063;-70
2022/06/05 05:58:40;;;;;;;18.13;3.05;;;30.60;19.40;;;;;;5054354;28;20063;-70
2022/06/05 06:01:10;;;;;;;16.50;1.83;;;30.60;19.50;;;;;;5049601;28;20067;-71
2022/06/05 06:03:36;;;;;;;24.95;3.05;;;30.60;19.50;;;;;;5049565;28;20220;-69
2022/06/05 06:06:04;;;;;;;10.23;1.85;;;30.60;19.50;;;;;;5048226;28;20076;-72
2022/06/05 06:08:31;;;;;;;14.00;1.67;;;30.60;19.40;;;;;;5049163;28;20068;-69
2022/06/05 06:10:57;;;;;;;16.30;2.25;;;30.60;19.80;;;;;;5048327;28;20067;-69
2022/06/05 06:13:24;;;;;;;33.97;3.72;;;30.60;19.40;;;;;;5050634;28;20093;-68
2022/06/05 06:15:50;;;;;;;76.60;4.40;;;30.60;19.50;;;;;;5048348;28;20072;-68
2022/06/05 06:18:17;;;;;;;21.35;2.33;;;30.60;19.90;;;;;;5049071;28;20593;-69
2022/06/05 06:20:45;;;;;;;15.57;2.33;;;30.50;20.20;;;;;;5048414;28;20093;-69
2022/06/05 06:23:14;;;;;;;51.60;3.97;;;30.40;20.50;;;;;;5051101;28;20102;-70
2022/06/05 06:25:41;;;;;;;10.50;2.03;;;30.30;20.40;;;;;;5048177;28;20058;-71
2022/06/05 06:28:08;;;;;;;12.85;1.65;;;30.30;20.50;;;;;;5049082;28;20098;-70
2022/06/05 06:30:35;;;;;;;8.95;1.80;;;30.20;20.60;;;;;;5049452;28;20080;-70
2022/06/05 06:33:02;;;;;;;10.90;1.75;;;30.30;21.10;;;;;;5050424;28;20094;-69
2022/06/05 06:35:28;;;;;;;15.73;1.70;;;30.20;21.10;;;;;;5055191;28;20530;-70
2022/06/05 06:37:55;;;;;;;8.93;1.60;;;30.20;21.10;;;;;;5047499;28;20173;-69
2022/06/05 06:40:21;;;;;;;18.23;2.75;;;30.10;21.40;;;;;;5050037;28;20067;-68
2022/06/05 06:42:48;;;;;;;9.85;2.40;;;29.90;21.40;;;;;;5030876;28;20095;-69
2022/06/05 06:45:15;;;;;;;15.70;2.25;;;29.70;21.50;;;;;;5048856;28;20102;-70
2022/06/05 06:47:41;;;;;;;9.38;1.63;;;29.80;21.70;;;;;;5048153;28;20531;-71
2022/06/05 06:50:08;;;;;;;4.93;1.40;;;29.60;21.70;;;;;;5047995;28;20563;-71
2022/06/05 06:52:36;;;;;;;6.70;1.65;;;29.50;21.60;;;;;;5048663;28;20126;-70
2022/06/05 06:55:04;;;;;;;4.32;1.75;;;29.60;21.30;;;;;;5048864;28;20152;-70
2022/06/05 06:57:30;;;;;;;9.38;2.08;;;29.50;21.30;;;;;;5047532;28;20086;-70
2022/06/05 06:59:56;;;;;;;8.40;2.00;;;29.50;21.70;;;;;;5047865;28;20163;-71
2022/06/05 07:02:23;;;;;;;11.13;2.10;;;29.50;22.00;;;;;;5051409;28;20131;-70
2022/06/05 07:04:49;;;;;;;11.93;2.08;;;29.30;22.30;;;;;;5049624;28;20544;-70
2022/06/05 07:07:16;;;;;;;10.68;1.85;;;29.10;22.90;;;;;;5031018;28;20078;-69
2022/06/05 07:09:42;;;;;;;7.45;1.83;;;29.00;23.00;;;;;;5047488;28;20573;-69
2022/06/05 07:12:08;;;;;;;6.88;1.80;;;29.10;23.00;;;;;;5046470;28;20131;-67
2022/06/05 07:14:35;;;;;;;7.95;1.60;;;29.00;23.00;;;;;;5048383;28;20082;-70
2022/06/05 07:17:01;;;;;;;6.65;1.33;;;28.90;22.90;;;;;;5065848;28;20069;-68
2022/06/05 07:19:28;;;;;;;5.00;1.50;;;28.90;23.10;;;;;;5047688;28;20080;-70
2022/06/05 07:21:54;;;;;;;4.93;1.60;;;28.90;22.80;;;;;;5049537;28;20099;-70
2022/06/05 07:24:20;;;;;;;7.85;1.85;;;29.00;23.00;;;;;;5047329;28;20093;-70
2022/06/05 07:26:48;;;;;;;10.82;1.58;;;29.00;22.90;;;;;;5048138;28;21013;-71
2022/06/05 07:29:14;;;;;;;5.57;1.20;;;29.00;22.40;;;;;;5047403;28;20067;-69
2022/06/05 07:31:41;;;;;;;5.70;1.10;;;29.00;21.80;;;;;;5013997;28;20113;-69
2022/06/05 07:34:09;;;;;;;6.05;1.23;;;29.00;21.40;;;;;;5046993;28;20643;-69
2022/06/05 07:36:36;;;;;;;4.63;1.50;;;29.10;21.40;;;;;;5046546;28;20509;-69
2022/06/05 07:39:03;;;;;;;6.78;1.50;;;29.10;21.20;;;;;;5048341;28;20461;-69
2022/06/05 07:41:33;;;;;;;2.63;1.48;;;29.10;21.10;;;;;;5063777;28;20073;-69
2022/06/05 07:44:00;;;;;;;3.42;1.00;;;29.20;21.20;;;;;;5046689;28;20088;-70
2022/06/05 07:46:28;;;;;;;3.75;0.85;;;29.20;20.90;;;;;;5046886;28;20081;-70
2022/06/05 07:48:55;;;;;;;4.78;0.90;;;29.30;20.90;;;;;;5045588;28;20134;-68
2022/06/05 07:54:28;;;;;;;6.13;0.93;;;29.40;20.80;;;;;;5048866;28;20127;-70
2022/06/05 07:56:59;;;;;;;2.78;1.20;;;29.40;21.00;;;;;;5066981;28;20417;-70
2022/06/05 07:59:28;;;;;;;6.70;1.10;;;29.40;21.10;;;;;;5050507;28;20512;-69
2022/06/05 08:01:58;;;;;;;7.88;1.52;;;29.40;21.20;;;;;;5050949;28;20091;-70
2022/06/05 08:04:26;;;;;;;6.90;1.63;;;29.40;21.40;;;;;;5053562;28;20532;-70
2022/06/05 08:06:54;;;;;;;14.00;1.50;;;29.30;21.40;;;;;;5048696;28;20076;-70
2022/06/05 08:09:20;;;;;;;10.93;1.73;;;29.30;21.90;;;;;;5049259;28;20064;-70
2022/06/05 08:11:47;;;;;;;10.65;1.80;;;29.20;22.20;;;;;;5051807;28;20528;-70
2022/06/05 08:14:14;;;;;;;10.73;1.75;;;29.10;22.00;;;;;;5049810;28;20081;-70
2022/06/05 08:16:43;;;;;;;13.93;1.80;;;29.10;22.50;;;;;;5051060;28;20161;-69
2022/06/05 08:19:12;;;;;;;30.38;4.22;;;29.00;22.30;;;;;;5053176;28;20144;-69
2022/06/05 08:21:40;;;;;;;29.67;4.72;;;28.90;22.10;;;;;;5050197;28;20569;-69
2022/06/05 08:24:07;;;;;;;24.90;5.07;;;28.90;22.20;;;;;;5053024;28;20097;-68
2022/06/05 08:26:33;;;;;;;34.00;4.50;;;28.80;22.50;;;;;;5060653;28;20171;-66
2022/06/05 08:29:00;;;;;;;31.15;5.28;;;28.80;22.50;;;;;;5057577;28;20073;-68
2022/06/05 08:31:29;;;;;;;30.27;4.75;;;28.70;22.90;;;;;;5052500;28;20097;-69
2022/06/05 08:33:57;;;;;;;37.60;5.72;;;28.70;23.00;;;;;;5050118;28;20087;-69
2022/06/05 08:36:24;;;;;;;32.00;5.80;;;28.60;23.10;;;;;;5050383;28;20524;-68
2022/06/05 08:41:38;;;;;;;33.90;7.85;;;28.40;23.30;;;;;;5051721;28;20077;-69
2022/06/05 08:44:15;;;;;;;40.10;8.32;;;28.40;23.60;;;;;;5049849;28;20084;-68
2022/06/05 08:46:48;;;;;;;56.47;8.65;;;28.40;24.50;;;;;;5050773;28;20426;-69
2022/06/05 08:49:38;;;;;;;44.35;6.88;;;28.40;25.40;;;;;;5049926;28;20099;-69
2022/06/05 08:52:37;;;;;;;48.17;7.35;;;28.30;28.90;;;;;;5050508;28;20076;-65
2022/06/05 08:55:30;;;;;;;41.58;6.10;;;28.50;31.10;;;;;;5015570;28;20145;-62
2022/06/05 08:58:20;;;;;;;45.63;6.55;;;28.50;32.40;;;;;;5046725;28;20092;-63
2022/06/05 09:01:01;;;;;;;38.97;6.00;;;28.60;33.30;;;;;;5049776;28;20160;-65
2022/06/05 09:03:33;;;;;;;38.15;7.40;;;28.60;33.80;;;;;;5050198;28;20085;-66
2022/06/05 09:06:25;;;;;;;45.40;7.75;;;28.60;33.90;;;;;;5050657;28;20077;-67
2022/06/05 09:08:55;;;;;;;38.20;7.00;;;28.80;34.40;;;;;;5047062;28;20101;-67
2022/06/05 09:11:37;;;;;;;37.53;7.28;;;28.90;36.20;;;;;;5049205;28;20074;-66
2022/06/05 09:14:36;;;;;;;33.35;7.03;;;28.90;37.10;;;;;;5047898;28;20155;-65
2022/06/05 09:17:10;;;;;;;36.85;6.85;;;28.80;37.30;;;;;;5012370;28;20078;-67
2022/06/05 09:19:36;;;;;;;34.45;7.38;;;28.80;36.70;;;;;;4998841;28;20125;-67
2022/06/05 09:22:16;;;;;;;36.85;7.90;;;28.80;35.70;;;;;;5031716;28;20109;-66
2022/06/05 09:25:02;;;;;;;37.25;7.82;;;28.70;34.50;;;;;;5014265;28;20617;-67
2022/06/05 09:27:46;;;;;;;47.05;7.15;;;28.70;33.30;;;;;;4994957;28;20440;-67
2022/06/05 09:30:17;;;;;;;44.08;7.70;;;28.50;33.00;;;;;;5011604;28;20069;-67
2022/06/05 09:33:21;;;;;;;40.78;7.53;;;28.40;32.70;;;;;;5028090;28;20097;-65
2022/06/05 09:35:53;;;;;;;39.03;7.72;;;28.30;32.70;;;;;;4950252;28;20083;-65
2022/06/05 09:38:47;;;;;;;38.47;7.65;;;28.40;32.60;;;;;;4934025;28;20088;-65
2022/06/05 09:41:26;;;;;;;40.20;8.18;;;28.30;31.90;;;;;;4933851;28;20115;-66
2022/06/05 09:44:10;;;;;;;37.88;7.45;;;28.20;31.20;;;;;;4949573;28;20071;-66
2022/06/05 09:47:01;;;;;;;41.05;7.82;;;28.20;31.90;;;;;;4933929;28;20079;-65
2022/06/05 09:49:41;;;;;;;42.63;8.70;;;28.20;33.30;;;;;;4949835;29;20118;-67
2022/06/05 09:52:24;;;;;;;36.45;8.48;;;28.20;37.10;;;;;;4935032;29;20123;-65
2022/06/05 09:55:09;;;;;;;29.00;6.32;;;28.30;37.40;;;;;;4948992;28;20083;-64
2022/06/05 10:00:43;;;;;;;34.97;7.55;;;28.10;41.40;;;;;;4985666;28;20545;-66
2022/06/05 10:03:32;;;;;;;31.92;7.20;;;28.00;42.40;;;;;;4985205;28;20100;-65
2022/06/05 10:06:20;;;;;;;36.40;7.70;;;28.00;42.40;;;;;;4985120;28;20129;-66
2022/06/05 10:08:57;;;;;;;33.63;7.88;;;28.00;42.50;;;;;;4984185;28;20083;-66
2022/06/05 10:11:38;;;;;;;33.17;8.45;;;27.90;42.00;;;;;;4994743;28;20108;-66
2022/06/05 10:14:30;;;;;;;34.50;8.80;;;28.00;42.00;;;;;;5047127;28;20110;-66
2022/06/05 10:17:35;;;;;;;35.30;9.70;;;28.00;42.00;;;;;;5048755;28;20535;-68
2022/06/05 10:20:13;;;;;;;50.85;12.07;;;27.90;43.50;;;;;;5037977;28;20078;-67
2022/06/05 10:22:39;;;;;;;48.65;11.75;;;28.00;45.20;;;;;;5048362;28;20097;-68
2022/06/05 10:25:35;;;;;;;50.50;13.52;;;27.80;46.20;;;;;;5048038;28;20092;-66
2022/06/05 10:28:19;;;;;;;62.83;13.73;;;27.90;47.70;;;;;;5050384;28;20093;-65
2022/06/05 10:30:59;;;;;;;54.67;12.90;;;27.80;49.10;;;;;;5048464;28;20063;-66
2022/06/05 10:33:41;;;;;;;44.55;13.20;;;27.80;50.30;;;;;;5047923;28;20594;-65
2022/06/05 10:36:50;;;;;;;36.72;11.75;;;27.70;51.40;;;;;;5047713;28;20096;-66
2022/06/05 10:39:42;;;;;;;30.63;9.57;;;27.60;52.00;;;;;;5019199;28;20495;-64
2022/06/05 10:42:53;;;;;;;28.88;8.57;;;27.60;52.50;;;;;;5047453;28;20449;-65
2022/06/05 10:45:55;;;;;;;29.13;8.38;;;27.60;52.60;;;;;;5012002;28;20191;-64
2022/06/05 10:48:25;;;;;;;24.88;6.18;;;27.40;52.70;;;;;;5029457;28;20104;-64
2022/06/05 10:50:57;;;;;;;26.55;5.82;;;27.20;53.20;;;;;;5011714;28;20113;-65
2022/06/05 10:53:28;;;;;;;19.75;5.38;;;27.30;53.40;;;;;;5011670;28;20071;-65
2022/06/05 10:56:25;;;;;;;18.45;5.38;;;27.00;53.50;;;;;;5025641;28;20086;-64
2022/06/05 10:59:07;;;;;;;25.77;5.50;;;27.10;53.90;;;;;;5028708;28;20171;-66
2022/06/05 11:01:54;;;;;;;24.17;5.50;;;27.20;53.80;;;;;;5009107;28;20167;-66
2022/06/05 11:04:45;;;;;;;20.38;5.35;;;27.20;53.80;;;;;;5026055;28;20080;-66
2022/06/05 11:07:36;;;;;;;22.38;6.07;;;27.20;54.00;;;;;;5009609;28;20524;-66
2022/06/05 11:10:18;;;;;;;21.38;5.60;;;27.20;54.00;;;;;;5030695;28;20097;-65
2022/06/05 11:15:45;;;;;;;24.48;6.43;;;27.10;54.70;;;;;;5023874;28;20125;-66
2022/06/05 11:18:38;;;;;;;26.67;6.25;;;27.00;54.80;;;;;;5023926;28;20564;-66
2022/06/05 11:21:06;;;;;;;25.23;6.30;;;27.10;55.10;;;;;;5015208;28;20105;-67
2022/06/05 11:23:44;;;;;;;26.75;7.28;;;27.10;55.20;;;;;;5034102;28;20507;-67
2022/06/05 11:26:21;;;;;;;26.35;6.63;;;27.10;55.30;;;;;;5047182;28;20072;-66
2022/06/05 11:29:08;;;;;;;21.60;5.70;;;27.00;55.30;;;;;;5048344;28;20073;-66
2022/06/05 11:31:42;;;;;;;32.75;5.75;;;27.10;55.50;;;;;;5026587;28;20109;-67
2022/06/05 11:34:41;;;;;;;29.98;5.55;;;27.10;56.00;;;;;;5064523;28;20095;-63
2022/06/05 11:37:20;;;;;;;22.42;4.82;;;26.90;56.60;;;;;;5048278;28;20065;-64
2022/06/05 11:40:04;;;;;;;28.73;5.38;;;26.80;56.40;;;;;;5047135;28;20068;-65
2022/06/05 11:42:54;;;;;;;25.30;5.90;;;26.70;56.70;;;;;;5047194;28;20547;-66
2022/06/05 11:45:42;;;;;;;22.20;5.15;;;26.70;56.80;;;;;;5047757;28;20168;-66
2022/06/05 11:48:22;;;;;;;21.02;5.28;;;26.80;56.90;;;;;;5048775;28;20067;-68
2022/06/05 11:50:55;;;;;;;29.75;5.72;;;26.70;56.80;;;;;;5046322;28;20115;-66
2022/06/05 11:53:32;;;;;;;20.40;5.43;;;26.80;56.90;;;;;;5048952;28;20127;-67
2022/06/05 11:56:08;;;;;;;21.35;5.80;;;26.80;56.70;;;;;;5047799;28;20481;-65
2022/06/05 11:58:47;;;;;;;29.95;6.65;;;26.70;56.30;;;;;;5050689;28;20087;-66
2022/06/05 12:01:20;;;;;;;24.33;5.78;;;26.70;56.00;;;;;;5047013;28;20118;-66
2022/06/05 12:04:05;;;;;;;18.45;5.57;;;26.70;56.10;;;;;;5047137;28;20113;-66
2022/06/05 12:06:45;;;;;;;20.73;5.97;;;26.60;56.30;;;;;;5046923;28;20072;-68
2022/06/05 12:09:29;;;;;;;23.63;6.03;;;26.60;56.30;;;;;;5047026;28;20072;-66
2022/06/05 12:12:04;;;;;;;24.63;6.13;;;26.40;56.50;;;;;;5049803;28;20221;-66
2022/06/05 12:14:33;;;;;;;20.95;6.13;;;26.30;57.10;;;;;;5046880;28;20072;-65
2022/06/05 12:17:12;;;;;;;28.45;6.38;;;26.30;57.00;;;;;;5048151;28;20091;-66
2022/06/05 12:19:54;;;;;;;28.10;6.78;;;26.30;57.10;;;;;;5046757;28;20071;-66
2022/06/05 12:22:44;;;;;;;29.40;8.10;;;26.30;57.70;;;;;;5047877;28;20088;-66
2022/06/05 12:25:13;;;;;;;32.63;6.97;;;26.30;58.20;;;;;;5046215;28;20147;-66
2022/06/05 12:27:58;;;;;;;22.85;6.05;;;26.30;58.10;;;;;;5047494;28;20102;-67
2022/06/05 12:30:36;;;;;;;28.83;6.75;;;26.40;58.10;;;;;;5046849;28;20079;-66
2022/06/05 12:33:20;;;;;;;29.50;6.97;;;26.40;58.20;;;;;;5055262;28;20546;-67
2022/06/05 12:35:56;;;;;;;31.95;7.55;;;26.30;58.20;;;;;;5062352;28;20225;-65
2022/06/05 12:38:47;;;;;;;35.50;7.88;;;26.30;58.40;;;;;;5047311;28;20074;-66
2022/06/05 12:42:09;;;;;;;27.63;7.47;;;26.20;58.70;;;;;;5049917;28;20442;-65
2022/06/05 12:44:45;;;;;;;38.55;7.55;;;26.10;58.80;;;;;;4993414;28;20108;-67
2022/06/05 12:47:50;;;;;;;31.45;7.38;;;26.00;59.00;;;;;;5007834;28;20088;-65
2022/06/05 12:50:41;;;;;;;26.00;6.35;;;26.00;59.20;;;;;;4935944;29;20142;-64
2022/06/05 12:53:28;;;;;;;25.38;6.32;;;26.00;59.10;;;;;;4917335;29;20081;-65
2022/06/05 12:56:07;;;;;;;37.13;6.35;;;26.00;58.80;;;;;;4932117;29;20873;-67
2022/06/05 12:58:48;;;;;;;28.15;6.72;;;25.90;59.20;;;;;;4916211;29;20453;-66
2022/06/05 13:01:49;;;;;;;28.58;6.18;;;26.00;59.10;;;;;;4932539;29;20141;-64
2022/06/05 13:04:21;;;;;;;22.85;5.20;;;26.00;58.90;;;;;;4931118;29;20085;-65
2022/06/05 13:07:14;;;;;;;24.23;5.55;;;26.00;59.00;;;;;;4931010;29;20102;-64
2022/06/05 13:10:06;;;;;;;22.95;5.65;;;26.00;59.10;;;;;;4916380;29;20095;-66
2022/06/05 13:13:08;;;;;;;28.30;6.07;;;26.00;59.90;;;;;;4947935;28;20086;-67
2022/06/05 13:16:11;;;;;;;24.85;6.10;;;26.10;60.10;;;;;;4932893;29;20110;-66
2022/06/05 13:19:00;;;;;;;18.70;4.40;;;26.10;60.30;;;;;;4910035;29;20091;-64
2022/06/05 13:21:29;;;;;;;19.45;5.47;;;26.10;61.10;;;;;;4912014;29;20146;-65
2022/06/05 13:24:32;;;;;;;23.48;6.30;;;26.20;61.20;;;;;;4913208;29;20517;-65
2022/06/05 13:27:23;;;;;;;23.25;5.85;;;26.10;61.80;;;;;;4933056;29;20081;-66
2022/06/05 13:30:21;;;;;;;26.13;5.55;;;26.10;62.90;;;;;;4949761;29;20114;-66
2022/06/05 13:33:01;;;;;;;18.77;4.85;;;26.20;62.90;;;;;;4934320;29;20106;-65